createdAt,value
2023-04-16T00:02:25.796Z,17.15
2023-04-16T00:04:52.981Z,18.88
2023-04-16T00:07:19.765Z,23.30
2023-04-16T00:09:46.951Z,19.48
2023-04-16T00:12:13.807Z,22.58
2023-04-16T00:14:40.881Z,18.70
2023-04-16T00:17:07.745Z,18.40
2023-04-16T00:19:34.881Z,18.55
2023-04-16T00:22:01.848Z,18.27
2023-04-16T00:24:28.938Z,19.65
2023-04-16T00:26:56.015Z,20.90
2023-04-16T00:29:23.467Z,19.13
2023-04-16T00:31:50.352Z,16.05
2023-04-16T00:34:17.497Z,17.63
2023-04-16T00:36:44.318Z,18.10
2023-04-16T00:39:11.487Z,17.63
2023-04-16T00:41:38.827Z,18.27
2023-04-16T00:44:05.929Z,18.67
2023-04-16T00:46:33.074Z,18.80
2023-04-16T00:49:01.320Z,16.70
2023-04-16T00:51:28.506Z,19.48
2023-04-16T00:53:57.018Z,18.15
2023-04-16T00:56:24.972Z,18.48
2023-04-16T00:58:52.087Z,24.20
2023-04-16T01:01:18.926Z,20.38
2023-04-16T01:03:48.201Z,19.13
2023-04-16T01:06:17.514Z,16.30
2023-04-16T01:08:45.133Z,17.90
2023-04-16T01:11:12.223Z,17.58
2023-04-16T01:13:39.705Z,19.90
2023-04-16T01:16:08.392Z,17.05
2023-04-16T01:18:36.660Z,14.80
2023-04-16T01:21:04.092Z,17.40
2023-04-16T01:23:31.440Z,19.33
2023-04-16T01:25:58.295Z,18.38
2023-04-16T01:28:25.785Z,18.38
2023-04-16T01:30:52.668Z,20.02
2023-04-16T01:33:21.827Z,20.85
2023-04-16T01:35:48.601Z,22.13
2023-04-16T01:38:15.817Z,20.00
2023-04-16T01:40:42.606Z,19.73
2023-04-16T01:43:09.720Z,23.85
2023-04-16T01:45:36.520Z,22.70
2023-04-16T01:48:04.261Z,25.52
2023-04-16T01:50:31.541Z,16.55
2023-04-16T01:52:58.694Z,23.35
2023-04-16T01:55:25.536Z,17.48
2023-04-16T01:57:52.644Z,18.05
2023-04-16T02:00:19.513Z,16.20
2023-04-16T02:02:47.386Z,17.23
2023-04-16T02:05:14.336Z,17.13
2023-04-16T02:07:41.420Z,16.88
2023-04-16T02:10:10.349Z,20.05
2023-04-16T02:12:37.517Z,14.25
2023-04-16T02:15:05.002Z,15.90
2023-04-16T02:17:32.094Z,14.05
2023-04-16T02:19:58.899Z,15.45
2023-04-16T02:22:25.967Z,15.43
2023-04-16T02:24:52.797Z,15.75
2023-04-16T02:27:19.868Z,14.50
2023-04-16T02:29:49.456Z,14.48
2023-04-16T02:32:16.614Z,16.17
2023-04-16T02:34:43.486Z,18.52
2023-04-16T02:37:10.799Z,16.58
2023-04-16T02:39:37.661Z,17.50
2023-04-16T02:42:04.764Z,19.92
2023-04-16T02:44:31.554Z,15.20
2023-04-16T02:46:58.632Z,13.35
2023-04-16T02:49:25.491Z,20.35
2023-04-16T02:51:52.592Z,15.73
2023-04-16T02:54:19.373Z,17.42
2023-04-16T02:56:46.454Z,15.98
2023-04-16T02:59:13.218Z,14.25
2023-04-16T03:01:40.310Z,15.15
2023-04-16T03:04:07.221Z,12.80
2023-04-16T03:06:34.381Z,14.10
2023-04-16T03:09:01.206Z,13.93
2023-04-16T03:11:28.268Z,13.57
2023-04-16T03:13:55.040Z,12.68
2023-04-16T03:16:22.432Z,12.40
2023-04-16T03:18:49.420Z,12.68
2023-04-16T03:21:16.464Z,14.75
2023-04-16T03:23:43.284Z,11.88
2023-04-16T03:26:10.363Z,12.43
2023-04-16T03:28:37.145Z,11.23
2023-04-16T03:31:04.316Z,13.80
2023-04-16T03:33:31.277Z,13.05
2023-04-16T03:35:58.515Z,13.45
2023-04-16T03:38:26.682Z,13.93
2023-04-16T03:40:53.983Z,14.32
2023-04-16T03:43:21.074Z,19.50
2023-04-16T03:45:48.218Z,14.85
2023-04-16T03:48:15.894Z,12.60
2023-04-16T03:50:47.779Z,17.23
2023-04-16T03:53:14.814Z,13.60
2023-04-16T03:55:42.580Z,15.40
2023-04-16T03:58:09.728Z,14.27
2023-04-16T04:00:36.820Z,12.65
2023-04-16T04:03:04.011Z,10.02
2023-04-16T04:05:31.312Z,11.18
2023-04-16T04:07:58.115Z,14.07
2023-04-16T04:10:25.498Z,13.55
2023-04-16T04:12:52.320Z,12.02
2023-04-16T04:15:19.422Z,12.63
2023-04-16T04:17:46.358Z,11.80
2023-04-16T04:20:13.607Z,11.68
2023-04-16T04:22:40.596Z,14.00
2023-04-16T04:25:09.977Z,12.85
2023-04-16T04:27:36.740Z,16.35
2023-04-16T04:30:04.913Z,15.23
2023-04-16T04:32:32.108Z,13.80
2023-04-16T04:35:02.231Z,13.05
2023-04-16T04:37:29.555Z,15.35
2023-04-16T04:39:56.787Z,12.40
2023-04-16T04:42:24.166Z,11.73
2023-04-16T04:44:51.204Z,12.70
2023-04-16T04:47:18.022Z,11.82
2023-04-16T04:49:45.036Z,10.50
2023-04-16T04:52:11.967Z,12.48
2023-04-16T04:54:41.694Z,11.70
2023-04-16T04:57:08.753Z,12.45
2023-04-16T04:59:35.890Z,13.57
2023-04-16T05:02:03.494Z,11.82
2023-04-16T05:04:31.412Z,13.13
2023-04-16T05:06:58.254Z,10.93
2023-04-16T05:09:25.390Z,14.32
2023-04-16T05:11:52.300Z,11.40
2023-04-16T05:14:19.477Z,13.60
2023-04-16T05:16:46.348Z,11.98
2023-04-16T05:19:13.484Z,11.02
2023-04-16T05:21:40.324Z,10.70
2023-04-16T05:24:07.379Z,10.20
2023-04-16T05:26:34.179Z,11.32
2023-04-16T05:29:01.327Z,12.88
2023-04-16T05:31:28.147Z,12.80
2023-04-16T05:33:55.175Z,10.30
2023-04-16T05:36:23.103Z,12.95
2023-04-16T05:38:52.273Z,11.57
2023-04-16T05:41:19.018Z,10.77
2023-04-16T05:43:46.079Z,10.30
2023-04-16T05:46:12.940Z,10.38
2023-04-16T05:48:39.999Z,9.88
2023-04-16T05:51:06.830Z,10.27
2023-04-16T05:53:33.932Z,10.25
2023-04-16T05:56:00.700Z,9.77
2023-04-16T05:58:27.758Z,9.68
2023-04-16T06:00:54.671Z,11.35
2023-04-16T06:03:21.797Z,9.27
2023-04-16T06:05:48.704Z,11.13
2023-04-16T06:08:15.953Z,9.57
2023-04-16T06:10:42.809Z,10.00
2023-04-16T06:13:09.844Z,9.25
2023-04-16T06:15:36.636Z,13.95
2023-04-16T06:18:03.873Z,11.40
2023-04-16T06:20:31.020Z,10.68
2023-04-16T06:22:58.279Z,11.18
2023-04-16T06:25:25.161Z,10.40
2023-04-16T06:27:52.275Z,9.18
2023-04-16T06:30:19.893Z,10.48
2023-04-16T06:32:47.151Z,10.88
2023-04-16T06:35:14.036Z,10.70
2023-04-16T06:37:41.418Z,11.13
2023-04-16T06:40:08.700Z,8.35
2023-04-16T06:42:35.750Z,9.73
2023-04-16T06:45:02.706Z,10.13
2023-04-16T06:47:29.926Z,7.75
2023-04-16T06:49:56.797Z,9.20
2023-04-16T06:52:23.886Z,12.20
2023-04-16T06:54:50.685Z,9.93
2023-04-16T06:57:17.710Z,9.38
2023-04-16T06:59:44.489Z,8.52
2023-04-16T07:02:11.845Z,9.48
2023-04-16T07:04:39.766Z,8.10
2023-04-16T07:07:07.100Z,10.13
2023-04-16T07:09:33.897Z,8.65
2023-04-16T07:12:01.099Z,8.48
2023-04-16T07:14:27.881Z,8.55
2023-04-16T07:16:54.984Z,7.43
2023-04-16T07:19:21.976Z,7.38
2023-04-16T07:21:49.116Z,10.88
2023-04-16T07:24:16.127Z,8.50
2023-04-16T07:26:43.186Z,7.57
2023-04-16T07:29:10.249Z,7.97
2023-04-16T07:31:37.565Z,9.30
2023-04-16T07:34:04.487Z,5.60
2023-04-16T07:36:31.891Z,6.70
2023-04-16T07:38:58.659Z,6.57
2023-04-16T07:41:25.977Z,5.78
2023-04-16T07:43:52.785Z,6.55
2023-04-16T07:46:20.076Z,7.80
2023-04-16T07:48:46.941Z,5.05
2023-04-16T07:51:14.316Z,6.45
2023-04-16T07:53:42.132Z,5.78
2023-04-16T07:56:09.630Z,6.50
2023-04-16T07:58:36.743Z,6.90
2023-04-16T08:01:04.056Z,5.68
2023-04-16T08:03:31.335Z,5.47
2023-04-16T08:05:58.940Z,5.13
2023-04-16T08:08:25.877Z,6.82
2023-04-16T08:10:55.899Z,6.63
2023-04-16T08:13:24.007Z,6.13
2023-04-16T08:15:51.283Z,5.32
2023-04-16T08:18:19.655Z,5.65
2023-04-16T08:20:46.817Z,6.10
2023-04-16T08:23:13.578Z,5.53
2023-04-16T08:25:40.604Z,6.90
2023-04-16T08:28:07.370Z,8.63
2023-04-16T08:30:34.729Z,4.57
2023-04-16T08:33:01.917Z,5.88
2023-04-16T08:35:29.143Z,6.20
2023-04-16T08:37:57.875Z,6.20
2023-04-16T08:40:29.054Z,7.05
2023-04-16T08:42:59.453Z,5.43
2023-04-16T08:45:27.793Z,4.50
2023-04-16T08:47:54.632Z,6.90
2023-04-16T08:50:26.738Z,5.65
2023-04-16T08:52:59.296Z,3.88
2023-04-16T08:55:39.855Z,4.47
2023-04-16T08:58:15.466Z,6.15
2023-04-16T09:00:43.722Z,6.13
2023-04-16T09:03:11.217Z,4.60
2023-04-16T09:05:38.998Z,5.00
2023-04-16T09:08:06.775Z,4.68
2023-04-16T09:10:34.070Z,6.35
2023-04-16T09:13:01.310Z,5.05
2023-04-16T09:15:29.480Z,4.90
2023-04-16T09:17:59.382Z,5.55
2023-04-16T09:20:26.491Z,6.22
2023-04-16T09:22:53.391Z,5.55
2023-04-16T09:25:22.642Z,3.53
2023-04-16T09:27:50.936Z,6.38
2023-04-16T09:30:26.159Z,4.25
2023-04-16T09:33:11.676Z,4.57
2023-04-16T09:35:49.682Z,5.10
2023-04-16T09:38:17.149Z,5.07
2023-04-16T09:40:44.367Z,8.38
2023-04-16T09:43:15.801Z,3.63
2023-04-16T09:45:54.314Z,6.55
2023-04-16T09:48:31.934Z,5.35
2023-04-16T09:51:00.421Z,4.05
2023-04-16T09:53:31.828Z,5.40
2023-04-16T09:56:00.787Z,5.25
2023-04-16T09:58:28.631Z,4.45
2023-04-16T10:01:07.686Z,4.10
2023-04-16T10:03:36.775Z,5.18
2023-04-16T10:06:07.992Z,4.53
2023-04-16T10:08:34.905Z,4.68
2023-04-16T10:11:02.534Z,5.35
2023-04-16T10:13:31.156Z,3.97
2023-04-16T10:15:58.878Z,3.75
2023-04-16T10:18:25.843Z,3.42
2023-04-16T10:20:53.128Z,3.55
2023-04-16T10:23:21.962Z,14.88
2023-04-16T10:25:50.069Z,4.82
2023-04-16T10:28:17.142Z,4.78
2023-04-16T10:30:52.690Z,4.82
2023-04-16T10:33:27.301Z,3.05
2023-04-16T10:36:09.852Z,2.50
2023-04-16T10:38:40.151Z,8.45
2023-04-16T10:41:09.006Z,3.15
2023-04-16T10:43:50.298Z,2.47
2023-04-16T10:46:31.703Z,4.65
2023-04-16T10:49:31.536Z,3.22
2023-04-16T10:52:14.916Z,3.83
2023-04-16T10:54:41.772Z,3.13
2023-04-16T10:57:12.289Z,3.17
2023-04-16T10:59:41.974Z,2.58
2023-04-16T11:02:14.196Z,3.20
2023-04-16T11:04:45.123Z,3.13
2023-04-16T11:07:15.375Z,3.25
2023-04-16T11:09:52.812Z,2.58
2023-04-16T11:12:21.030Z,5.30
2023-04-16T11:14:53.297Z,3.58
2023-04-16T11:17:21.709Z,3.58
2023-04-16T11:19:48.761Z,3.55
2023-04-16T11:22:17.687Z,2.35
2023-04-16T11:24:46.264Z,1.35
2023-04-16T11:27:15.213Z,2.85
2023-04-16T11:29:42.356Z,2.95
2023-04-16T11:32:09.478Z,1.20
2023-04-16T11:34:44.843Z,3.50
2023-04-16T11:37:12.117Z,1.40
2023-04-16T11:39:52.758Z,1.58
2023-04-16T11:42:23.359Z,3.33
2023-04-16T11:44:58.200Z,1.88
2023-04-16T11:47:25.494Z,2.47
2023-04-16T11:49:52.386Z,2.42
2023-04-16T11:52:36.377Z,4.05
2023-04-16T11:57:31.864Z,1.92
2023-04-16T12:00:01.554Z,2.03
2023-04-16T12:02:53.190Z,2.03
2023-04-16T12:05:38.905Z,3.08
2023-04-16T12:08:10.668Z,2.00
2023-04-16T12:10:55.994Z,2.75
2023-04-16T12:13:23.097Z,1.50
2023-04-16T12:15:52.132Z,1.80
2023-04-16T12:18:22.520Z,1.83
2023-04-16T12:20:53.436Z,4.07
2023-04-16T12:23:30.728Z,2.17
2023-04-16T12:26:02.546Z,1.40
2023-04-16T12:28:35.960Z,2.28
2023-04-16T12:31:03.694Z,2.78
2023-04-16T12:33:31.359Z,1.83
2023-04-16T12:35:58.504Z,2.85
2023-04-16T12:38:33.735Z,3.05
2023-04-16T12:41:02.429Z,2.83
2023-04-16T12:43:29.536Z,1.30
2023-04-16T12:45:57.714Z,3.03
2023-04-16T12:48:25.049Z,3.28
2023-04-16T12:50:54.430Z,1.73
2023-04-16T12:53:21.542Z,2.05
2023-04-16T12:55:48.529Z,1.42
2023-04-16T12:58:15.600Z,2.78
2023-04-16T13:00:42.383Z,1.63
2023-04-16T13:03:09.525Z,5.63
2023-04-16T13:05:36.524Z,2.55
2023-04-16T13:08:03.640Z,1.98
2023-04-16T13:10:30.431Z,2.63
2023-04-16T13:12:57.498Z,2.13
2023-04-16T13:15:24.494Z,2.20
2023-04-16T13:17:51.643Z,1.52
2023-04-16T13:20:18.460Z,1.20
2023-04-16T13:22:45.606Z,1.60
2023-04-16T13:25:12.390Z,1.33
2023-04-16T13:27:39.481Z,1.67
2023-04-16T13:30:07.715Z,1.00
2023-04-16T13:32:34.871Z,2.00
2023-04-16T13:35:01.661Z,2.72
2023-04-16T13:37:28.766Z,2.13
2023-04-16T13:39:56.526Z,1.85
2023-04-16T13:42:23.593Z,1.83
2023-04-16T13:44:53.163Z,3.10
2023-04-16T13:47:20.447Z,1.40
2023-04-16T13:49:47.622Z,3.03
2023-04-16T13:52:14.689Z,1.80
2023-04-16T13:54:41.604Z,1.23
2023-04-16T13:57:08.737Z,1.45
2023-04-16T13:59:35.606Z,3.22
2023-04-16T14:02:02.853Z,0.90
2023-04-16T14:04:29.690Z,2.13
2023-04-16T14:06:57.057Z,2.33
2023-04-16T14:09:24.453Z,2.58
2023-04-16T14:11:51.559Z,1.75
2023-04-16T14:14:18.492Z,1.67
2023-04-16T14:16:45.726Z,1.27
2023-04-16T14:19:13.376Z,0.55
2023-04-16T14:21:43.310Z,0.85
2023-04-16T14:24:10.541Z,1.65
2023-04-16T14:26:37.587Z,1.60
2023-04-16T14:29:05.381Z,2.00
2023-04-16T14:31:33.582Z,2.30
2023-04-16T14:34:00.714Z,1.77
2023-04-16T14:36:27.886Z,5.40
2023-04-16T14:38:54.753Z,2.92
2023-04-16T14:41:21.912Z,1.50
2023-04-16T14:43:49.007Z,3.40
2023-04-16T14:46:19.364Z,2.47
2023-04-16T14:48:46.297Z,2.97
2023-04-16T14:51:13.437Z,3.25
2023-04-16T14:53:40.792Z,3.25
2023-04-16T14:56:07.891Z,1.20
2023-04-16T14:58:37.877Z,1.52
2023-04-16T15:01:06.229Z,3.13
2023-04-16T15:03:33.390Z,1.35
2023-04-16T15:06:01.886Z,1.15
2023-04-16T15:08:28.695Z,2.25
2023-04-16T15:10:55.940Z,3.90
2023-04-16T15:13:22.813Z,1.30
2023-04-16T15:15:50.106Z,1.75
2023-04-16T15:18:16.944Z,3.78
2023-04-16T15:20:44.400Z,0.80
2023-04-16T15:23:11.160Z,1.30
2023-04-16T15:25:38.271Z,2.00
2023-04-16T15:28:08.061Z,1.00
2023-04-16T15:30:35.189Z,1.55
2023-04-16T15:33:02.089Z,0.90
2023-04-16T15:35:29.332Z,4.10
2023-04-16T15:37:56.093Z,0.98
2023-04-16T15:40:24.414Z,2.17
2023-04-16T15:42:51.309Z,1.65
2023-04-16T15:45:18.495Z,3.63
2023-04-16T15:47:48.061Z,2.40
2023-04-16T15:50:15.325Z,2.13
2023-04-16T15:52:42.407Z,3.55
2023-04-16T15:55:10.093Z,3.75
2023-04-16T15:57:37.077Z,2.67
2023-04-16T16:00:13.877Z,1.05
2023-04-16T16:02:41.915Z,1.85
2023-04-16T16:05:14.288Z,2.58
2023-04-16T16:07:41.974Z,1.20
2023-04-16T16:10:10.627Z,2.03
2023-04-16T16:12:37.688Z,1.30
2023-04-16T16:15:06.468Z,1.90
2023-04-16T16:17:33.343Z,2.42
2023-04-16T16:20:00.601Z,1.58
2023-04-16T16:22:27.481Z,2.40
2023-04-16T16:24:56.465Z,1.40
2023-04-16T16:27:23.262Z,2.13
2023-04-16T16:29:50.445Z,1.55
2023-04-16T16:32:17.185Z,0.85
2023-04-16T16:34:44.238Z,2.88
2023-04-16T16:37:11.120Z,2.53
2023-04-16T16:39:38.848Z,2.13
2023-04-16T16:42:06.057Z,1.80
2023-04-16T16:44:33.538Z,1.38
2023-04-16T16:47:00.647Z,2.13
2023-04-16T16:49:27.827Z,3.80
2023-04-16T16:51:54.671Z,2.65
2023-04-16T16:54:21.706Z,0.90
2023-04-16T16:56:48.458Z,2.35
2023-04-16T16:59:15.541Z,3.30
2023-04-16T17:01:42.360Z,3.13
2023-04-16T17:04:09.640Z,1.95
2023-04-16T17:06:36.912Z,1.83
2023-04-16T17:09:04.078Z,1.80
2023-04-16T17:11:31.267Z,1.63
2023-04-16T17:13:58.337Z,2.05
2023-04-16T17:16:25.416Z,2.20
2023-04-16T17:18:52.562Z,4.70
2023-04-16T17:21:19.358Z,3.85
2023-04-16T17:23:46.427Z,1.73
2023-04-16T17:26:13.289Z,3.70
2023-04-16T17:28:40.808Z,4.20
2023-04-16T17:31:08.498Z,2.20
2023-04-16T17:33:35.822Z,2.70
2023-04-16T17:36:02.827Z,1.95
2023-04-16T17:38:30.032Z,2.67
2023-04-16T17:40:57.886Z,2.95
2023-04-16T17:43:24.953Z,2.53
2023-04-16T17:45:51.756Z,3.60
2023-04-16T17:48:18.817Z,3.58
2023-04-16T17:50:45.568Z,3.17
2023-04-16T17:53:12.697Z,4.93
2023-04-16T17:55:39.457Z,12.43
2023-04-16T17:58:06.538Z,5.15
2023-04-16T18:00:33.470Z,4.72
2023-04-16T18:03:00.720Z,3.00
2023-04-16T18:05:27.750Z,2.28
2023-04-16T18:07:55.675Z,3.22
2023-04-16T18:10:22.557Z,3.88
2023-04-16T18:12:49.617Z,3.42
2023-04-16T18:15:16.685Z,2.22
2023-04-16T18:17:43.870Z,3.80
2023-04-16T18:20:12.606Z,4.07
2023-04-16T18:22:39.787Z,2.45
2023-04-16T18:25:07.132Z,4.65
2023-04-16T18:27:34.441Z,3.17
2023-04-16T18:30:01.417Z,4.03
2023-04-16T18:32:31.000Z,3.97
2023-04-16T18:34:58.078Z,6.20
2023-04-16T18:37:25.333Z,6.05
2023-04-16T18:39:52.212Z,5.03
2023-04-16T18:42:19.264Z,5.13
2023-04-16T18:44:52.390Z,6.28
2023-04-16T18:47:19.576Z,4.65
2023-04-16T18:49:46.824Z,5.00
2023-04-16T18:52:13.975Z,3.13
2023-04-16T18:54:41.047Z,10.35
2023-04-16T18:57:08.207Z,4.82
2023-04-16T18:59:34.994Z,4.00
2023-04-16T19:02:02.286Z,2.47
2023-04-16T19:04:29.242Z,3.85
2023-04-16T19:06:56.681Z,4.18
2023-04-16T19:09:25.387Z,3.20
2023-04-16T19:11:52.490Z,4.78
2023-04-16T19:14:19.356Z,6.20
2023-04-16T19:16:47.369Z,3.58
2023-04-16T19:19:14.412Z,7.18
2023-04-16T19:21:41.455Z,3.92
2023-04-16T19:24:08.562Z,3.25
2023-04-16T19:26:38.250Z,2.60
2023-04-16T19:29:05.227Z,2.97
2023-04-16T19:31:32.459Z,3.05
2023-04-16T19:33:59.657Z,5.40
2023-04-16T19:36:27.239Z,3.25
2023-04-16T19:38:54.017Z,2.95
2023-04-16T19:41:21.218Z,3.67
2023-04-16T19:43:48.593Z,3.60
2023-04-16T19:46:16.710Z,5.72
2023-04-16T19:48:43.518Z,4.88
2023-04-16T19:51:10.663Z,4.40
2023-04-16T19:53:37.436Z,6.15
2023-04-16T19:56:04.741Z,3.72
2023-04-16T19:58:31.489Z,3.20
2023-04-16T20:00:58.633Z,2.85
2023-04-16T20:03:28.521Z,3.53
2023-04-16T20:05:55.763Z,3.83
2023-04-16T20:08:22.540Z,4.05
2023-04-16T20:10:49.594Z,3.75
2023-04-16T20:13:18.554Z,6.00
2023-04-16T20:15:47.173Z,3.10
2023-04-16T20:18:14.000Z,2.88
2023-04-16T20:20:41.544Z,3.45
2023-04-16T20:23:08.340Z,3.10
2023-04-16T20:25:35.444Z,4.18
2023-04-16T20:28:02.263Z,4.13
2023-04-16T20:30:29.516Z,2.95
2023-04-16T20:32:56.676Z,4.40
2023-04-16T20:35:23.857Z,4.65
2023-04-16T20:37:50.649Z,4.18
2023-04-16T20:40:17.763Z,3.10
2023-04-16T20:42:47.613Z,4.15
2023-04-16T20:45:14.700Z,3.45
2023-04-16T20:47:43.502Z,3.88
2023-04-16T20:50:11.250Z,4.97
2023-04-16T20:52:38.131Z,2.63
2023-04-16T20:55:05.868Z,4.00
2023-04-16T20:57:32.781Z,3.38
2023-04-16T20:59:59.928Z,4.18
2023-04-16T21:02:28.192Z,2.58
2023-04-16T21:04:55.947Z,3.20
2023-04-16T21:07:22.943Z,4.55
2023-04-16T21:09:50.076Z,3.55
2023-04-16T21:12:16.996Z,3.22
2023-04-16T21:14:48.638Z,3.90
2023-04-16T21:17:15.461Z,2.53
2023-04-16T21:19:42.566Z,2.35
2023-04-16T21:22:09.413Z,2.90
2023-04-16T21:24:36.593Z,2.80
2023-04-16T21:27:03.557Z,3.58
2023-04-16T21:29:33.339Z,2.95
2023-04-16T21:32:00.299Z,3.05
2023-04-16T21:34:27.626Z,3.00
2023-04-16T21:36:54.483Z,3.10
2023-04-16T21:39:21.835Z,3.10
2023-04-16T21:41:51.309Z,3.05
2023-04-16T21:44:18.438Z,3.55
2023-04-16T21:46:45.317Z,3.67
2023-04-16T21:49:12.656Z,2.42
2023-04-16T21:51:40.749Z,2.53
2023-04-16T21:54:07.919Z,4.13
2023-04-16T21:56:34.669Z,4.00
2023-04-16T21:59:01.811Z,3.83
2023-04-16T22:01:29.028Z,4.18
2023-04-16T22:03:56.198Z,2.08
2023-04-16T22:06:23.186Z,3.45
2023-04-16T22:08:50.365Z,2.45
2023-04-16T22:11:17.150Z,2.78
2023-04-16T22:13:46.398Z,3.08
2023-04-16T22:16:13.337Z,2.50
2023-04-16T22:18:41.235Z,2.78
2023-04-16T22:21:08.063Z,3.90
2023-04-16T22:23:35.187Z,3.90
2023-04-16T22:26:02.740Z,3.53
2023-04-16T22:28:29.956Z,5.97
2023-04-16T22:30:56.964Z,2.90
2023-04-16T22:33:24.044Z,3.20
2023-04-16T22:35:50.833Z,3.55
2023-04-16T22:38:17.896Z,2.72
2023-04-16T22:40:47.358Z,2.97
2023-04-16T22:43:14.504Z,4.28
2023-04-16T22:45:41.324Z,2.58
2023-04-16T22:48:08.539Z,2.83
2023-04-16T22:50:35.326Z,2.75
2023-04-16T22:53:02.376Z,3.35
2023-04-16T22:55:30.640Z,2.92
2023-04-16T22:57:57.777Z,3.03
2023-04-16T23:00:24.972Z,8.70
2023-04-16T23:02:52.523Z,3.20
2023-04-16T23:05:19.426Z,2.78
2023-04-16T23:07:46.509Z,2.60
2023-04-16T23:10:13.386Z,4.05
2023-04-16T23:12:40.597Z,2.38
2023-04-16T23:15:07.673Z,3.05
2023-04-16T23:17:35.189Z,3.50
2023-04-16T23:20:02.483Z,2.75
2023-04-16T23:22:29.557Z,2.15
2023-04-16T23:24:56.385Z,2.78
2023-04-16T23:27:23.524Z,2.40
2023-04-16T23:29:50.720Z,2.38
2023-04-16T23:32:17.857Z,4.93
2023-04-16T23:34:44.798Z,1.83
2023-04-16T23:37:11.946Z,2.90
2023-04-16T23:39:38.760Z,3.63
2023-04-16T23:42:06.130Z,2.60
2023-04-16T23:44:33.063Z,2.83
2023-04-16T23:47:00.480Z,3.45
2023-04-16T23:49:27.377Z,2.13
2023-04-16T23:51:54.438Z,3.40
2023-04-16T23:54:21.426Z,3.55
2023-04-16T23:56:48.880Z,2.38
2023-04-16T23:59:16.780Z,2.72
